WPL weather

Powell Lake Seaplane Base
British Columbia, Canada

Public forecast

Using degrees Celsius for public forecast. Weather courtesy of forecast.io.

METAR (pilot weather report)

Report is more than 6 hours old.

Closest report is Powell River Airport, 3.2 nm (5.9 km) SSE. Retrieved 2019/07/19 02:00 UTC (9 hours ago):

CYPW 190200Z 00000KT 10SM -RA BKN068 OVC076 13/12 A3005 RMK AC5AC3 VIS N-E 3 LO CLD BR LAST STFD OBS NEXT OBS 191300UTC SLP178

TAF (pilot weather forecast)

Closest forecast is Comox Airport, 17.2 nm (31.8 km) SW. Retrieved 2019/07/19 06:42 UTC (5 hours ago):

TAF TAF CYQQ 190539Z 1906/2006 VRB03KT P6SM FEW015 SCT060 BKN130 FM190900 VRB03KT P6SM SCT015 SCT060 TEMPO 1909/1915 BKN015 BKN060 FM191500 33005KT P6SM FEW015 SCT040 BECMG 1917/1919 05005KT FM192100 05006KT P6SM SCT050 TEMPO 1921/1924 BKN050 FM200000 30005KT P6SM BKN070 RMK NXT FCST BY 191200Z